createdAt,value
2023-05-10T00:04:07.270Z,13.70
2023-05-10T00:09:09.097Z,13.90
2023-05-10T00:14:12.465Z,13.90
2023-05-10T00:19:15.074Z,13.80
2023-05-10T00:24:18.135Z,13.90
2023-05-10T00:29:21.601Z,13.80
2023-05-10T00:34:23.444Z,13.80
2023-05-10T00:39:25.449Z,13.80
2023-05-10T00:44:28.564Z,13.70
2023-05-10T00:49:31.369Z,13.80
2023-05-10T00:54:33.412Z,13.80
2023-05-10T00:59:36.667Z,13.70
2023-05-10T01:04:40.655Z,13.60
2023-05-10T01:09:42.378Z,13.50
2023-05-10T01:14:46.175Z,13.40
2023-05-10T01:19:48.504Z,13.30
2023-05-10T01:25:24.688Z,13.20
2023-05-10T01:31:02.550Z,13.10
2023-05-10T01:36:11.092Z,12.90
2023-05-10T01:41:19.733Z,12.90
2023-05-10T01:46:31.041Z,12.90
2023-05-10T01:51:41.764Z,12.90
2023-05-10T01:56:46.121Z,12.80
2023-05-10T02:01:49.116Z,12.70
2023-05-10T02:06:53.695Z,12.60
2023-05-10T02:11:57.821Z,12.60
2023-05-10T02:17:01.655Z,12.60
2023-05-10T02:22:06.677Z,12.60
2023-05-10T02:27:10.119Z,12.70
2023-05-10T02:32:13.544Z,12.60
2023-05-10T02:37:19.609Z,12.50
2023-05-10T02:42:26.086Z,12.50
2023-05-10T02:47:28.471Z,12.40
2023-05-10T02:52:40.915Z,12.40
2023-05-10T02:57:46.159Z,12.50
2023-05-10T03:02:48.448Z,12.40
2023-05-10T03:07:53.160Z,12.50
2023-05-10T03:13:07.711Z,12.40
2023-05-10T03:18:12.967Z,12.40
2023-05-10T03:23:23.518Z,12.40
2023-05-10T03:28:28.939Z,12.40
2023-05-10T03:33:31.244Z,12.40
2023-05-10T03:38:34.431Z,12.40
2023-05-10T03:43:36.634Z,12.30
2023-05-10T03:48:38.690Z,12.30
2023-05-10T03:53:42.180Z,12.40
2023-05-10T03:58:44.197Z,12.40
2023-05-10T04:03:46.264Z,12.40
2023-05-10T04:08:49.818Z,12.30
2023-05-10T04:13:51.779Z,12.40
2023-05-10T04:18:53.532Z,12.40
2023-05-10T04:23:57.004Z,12.40
2023-05-10T04:28:59.007Z,12.50
2023-05-10T04:34:00.864Z,12.60
2023-05-10T04:39:05.270Z,12.60
2023-05-10T04:44:07.440Z,12.60
2023-05-10T04:49:09.776Z,12.70
2023-05-10T04:54:13.164Z,12.80
2023-05-10T05:05:11.004Z,12.70
2023-05-10T05:10:14.737Z,12.90
2023-05-10T05:15:17.855Z,12.80
2023-05-10T05:20:20.123Z,12.90
2023-05-10T05:25:23.674Z,13.10
2023-05-10T05:30:25.797Z,13.10
2023-05-10T05:35:48.221Z,13.20
2023-05-10T05:41:01.574Z,13.20
2023-05-10T05:46:27.993Z,13.20
2023-05-10T05:51:30.142Z,13.10
2023-05-10T05:56:33.574Z,13.20
2023-05-10T06:01:35.490Z,13.20
2023-05-10T06:06:37.403Z,13.30
2023-05-10T06:11:41.136Z,13.40
2023-05-10T06:16:43.057Z,13.50
2023-05-10T06:21:45.256Z,13.50
2023-05-10T06:26:51.050Z,13.50
2023-05-10T06:31:52.871Z,13.60
2023-05-10T06:36:54.633Z,13.80
2023-05-10T06:41:57.864Z,13.90
2023-05-10T06:46:59.871Z,13.90
2023-05-10T06:52:01.848Z,13.60
2023-05-10T06:57:10.807Z,13.50
2023-05-10T07:02:18.681Z,13.40
2023-05-10T07:07:20.967Z,13.40
2023-05-10T07:12:24.249Z,13.30
2023-05-10T07:17:26.526Z,13.40
2023-05-10T07:22:28.709Z,13.40
2023-05-10T07:27:32.222Z,13.50
2023-05-10T07:32:34.120Z,13.40
2023-05-10T07:37:36.152Z,13.20
2023-05-10T07:42:40.112Z,13.10
2023-05-10T07:47:41.800Z,13.20
2023-05-10T07:52:44.270Z,13.20
2023-05-10T07:57:47.492Z,12.90
2023-05-10T08:02:50.521Z,12.80
2023-05-10T08:07:52.729Z,12.80
2023-05-10T08:12:56.350Z,12.70
2023-05-10T08:17:58.436Z,12.60
2023-05-10T08:23:00.421Z,12.60
2023-05-10T08:28:03.875Z,12.50
2023-05-10T08:33:06.209Z,12.40
2023-05-10T08:38:08.459Z,12.30
2023-05-10T08:43:13.314Z,12.20
2023-05-10T08:48:16.406Z,12.30
2023-05-10T08:53:19.768Z,12.50
2023-05-10T08:58:23.416Z,12.60
2023-05-10T09:03:25.544Z,12.60
2023-05-10T09:08:28.844Z,12.60
2023-05-10T09:13:33.008Z,12.60
2023-05-10T09:18:35.321Z,12.60
2023-05-10T09:23:37.871Z,12.70
2023-05-10T09:28:54.688Z,13.10
2023-05-10T09:33:56.719Z,13.20
2023-05-10T09:38:59.864Z,13.30
2023-05-10T09:44:03.256Z,13.20
2023-05-10T09:49:05.399Z,13.10
2023-05-10T09:54:14.726Z,13.10
2023-05-10T09:59:18.746Z,13.20
2023-05-10T10:04:22.092Z,13.10
2023-05-10T10:09:24.127Z,13.10
2023-05-10T10:14:27.629Z,13.00
2023-05-10T10:19:31.197Z,13.20
2023-05-10T10:24:33.019Z,13.10
2023-05-10T10:29:42.429Z,12.90
2023-05-10T10:34:44.626Z,12.70
2023-05-10T10:39:46.555Z,12.70
2023-05-10T10:44:50.154Z,12.70
2023-05-10T10:49:54.977Z,12.80
2023-05-10T10:55:02.526Z,13.10
2023-05-10T11:00:29.397Z,13.30
2023-05-10T11:05:42.871Z,13.60
2023-05-10T11:10:54.125Z,13.80
2023-05-10T11:16:00.071Z,13.90
2023-05-10T11:21:04.341Z,13.80
2023-05-10T11:26:10.496Z,13.80
2023-05-10T11:31:15.582Z,13.90
2023-05-10T11:36:18.888Z,14.00
2023-05-10T11:41:23.225Z,13.90
2023-05-10T11:46:28.268Z,13.80
2023-05-10T11:51:30.729Z,13.60
2023-05-10T11:56:35.596Z,13.60
2023-05-10T12:01:39.611Z,13.50
2023-05-10T12:06:43.959Z,13.60
2023-05-10T12:11:46.651Z,13.70
2023-05-10T12:16:51.320Z,13.80
2023-05-10T12:21:53.453Z,13.60
2023-05-10T12:26:55.757Z,13.80
2023-05-10T12:32:00.768Z,13.20
2023-05-10T12:37:03.263Z,13.10
2023-05-10T12:42:05.586Z,13.20
2023-05-10T12:47:09.474Z,13.50
2023-05-10T12:52:11.827Z,13.60
2023-05-10T12:57:13.673Z,13.60
2023-05-10T13:02:19.318Z,13.90
2023-05-10T13:07:21.314Z,14.20
2023-05-10T13:12:22.978Z,14.30
2023-05-10T13:17:28.574Z,14.20
2023-05-10T13:22:39.721Z,14.10
2023-05-10T13:27:42.738Z,14.40
2023-05-10T13:32:46.926Z,14.50
2023-05-10T13:37:48.894Z,14.60
2023-05-10T13:42:50.700Z,14.90
2023-05-10T13:47:54.419Z,14.90
2023-05-10T13:52:56.841Z,14.70
2023-05-10T13:57:59.365Z,15.00
2023-05-10T14:03:03.117Z,14.70
2023-05-10T14:08:05.487Z,14.00
2023-05-10T14:13:07.485Z,14.30
2023-05-10T14:18:10.620Z,14.10
2023-05-10T14:23:12.737Z,14.20
2023-05-10T14:28:15.587Z,14.10
2023-05-10T14:33:19.128Z,13.80
2023-05-10T14:38:21.760Z,13.70
2023-05-10T14:43:25.125Z,13.50
2023-05-10T14:48:29.098Z,13.60
2023-05-10T14:53:31.187Z,13.60
2023-05-10T14:58:34.137Z,13.30
2023-05-10T15:03:38.108Z,13.10
2023-05-10T15:08:40.801Z,13.30
2023-05-10T15:13:42.720Z,13.30
2023-05-10T15:18:46.890Z,13.40
2023-05-10T15:23:49.307Z,13.30
2023-05-10T15:28:51.662Z,13.40
2023-05-10T15:34:00.425Z,13.30
2023-05-10T15:39:03.095Z,13.00
2023-05-10T15:44:05.470Z,12.90
2023-05-10T15:49:08.960Z,13.00
2023-05-10T15:54:12.512Z,12.90
2023-05-10T15:59:14.597Z,12.90
2023-05-10T16:04:18.346Z,12.70
2023-05-10T16:09:20.492Z,12.60
2023-05-10T16:14:24.944Z,12.60
2023-05-10T16:19:30.441Z,12.50
2023-05-10T16:24:33.479Z,12.40
2023-05-10T16:29:36.098Z,12.40
2023-05-10T16:34:40.415Z,12.40
2023-05-10T16:39:43.243Z,12.40
2023-05-10T16:44:45.938Z,12.50
2023-05-10T16:49:50.281Z,12.50
2023-05-10T16:54:52.993Z,12.50
2023-05-10T16:59:56.715Z,12.50
2023-05-10T17:05:01.052Z,12.50
2023-05-10T17:10:03.634Z,12.40
2023-05-10T17:15:08.200Z,12.30
2023-05-10T17:20:13.615Z,12.30
2023-05-10T17:25:17.213Z,12.30
2023-05-10T17:30:27.144Z,12.20
2023-05-10T17:35:32.399Z,12.10
2023-05-10T17:40:35.027Z,12.00
2023-05-10T17:45:38.185Z,11.90
2023-05-10T17:50:44.660Z,11.80
2023-05-10T17:55:47.775Z,11.80
2023-05-10T18:00:50.684Z,11.80
2023-05-10T18:05:56.071Z,11.80
2023-05-10T18:10:59.267Z,11.70
2023-05-10T18:16:02.488Z,11.70
2023-05-10T18:21:07.358Z,11.50
2023-05-10T18:26:10.560Z,11.30
2023-05-10T18:31:14.224Z,11.00
2023-05-10T18:36:18.976Z,10.90
2023-05-10T18:41:22.137Z,10.90
2023-05-10T18:46:25.257Z,10.80
2023-05-10T18:51:30.502Z,10.60
2023-05-10T18:56:33.565Z,10.60
2023-05-10T19:01:36.669Z,10.40
2023-05-10T19:06:42.440Z,10.40
2023-05-10T19:11:45.292Z,10.40
2023-05-10T19:16:49.047Z,10.50
2023-05-10T19:21:53.671Z,10.50
2023-05-10T19:26:57.087Z,10.40
2023-05-10T19:32:00.073Z,10.60
2023-05-10T19:37:04.439Z,10.60
2023-05-10T19:42:07.757Z,10.60
2023-05-10T19:47:11.079Z,10.40
2023-05-10T19:52:16.212Z,10.30
2023-05-10T19:57:19.200Z,10.10
2023-05-10T20:02:22.250Z,10.10
2023-05-10T20:07:27.220Z,10.10
2023-05-10T20:12:30.139Z,10.10
2023-05-10T20:17:33.651Z,10.00
2023-05-10T20:22:38.027Z,10.00
2023-05-10T20:27:43.531Z,10.00
2023-05-10T20:32:46.432Z,9.90
2023-05-10T20:37:50.990Z,9.80
2023-05-10T20:42:54.937Z,9.80
2023-05-10T20:48:00.681Z,9.80
2023-05-10T20:53:05.237Z,9.70
2023-05-10T20:58:08.093Z,9.80
2023-05-10T21:03:10.059Z,9.90
2023-05-10T21:08:13.479Z,10.00
2023-05-10T21:13:15.529Z,9.90
2023-05-10T21:18:17.549Z,9.90
2023-05-10T21:23:21.231Z,9.80
2023-05-10T21:28:23.049Z,9.80
2023-05-10T21:33:25.042Z,9.70
2023-05-10T21:38:29.066Z,9.80
2023-05-10T21:43:32.017Z,9.80
2023-05-10T21:48:34.177Z,9.80
2023-05-10T21:53:39.096Z,9.70
2023-05-10T21:58:41.017Z,9.70
2023-05-10T22:03:43.154Z,9.80
2023-05-10T22:08:46.265Z,9.80
2023-05-10T22:13:48.276Z,9.80
2023-05-10T22:18:54.363Z,9.80
2023-05-10T22:23:58.749Z,9.70
2023-05-10T22:29:00.580Z,9.60
2023-05-10T22:34:02.316Z,9.60
2023-05-10T22:39:08.432Z,9.60
2023-05-10T22:44:10.506Z,9.50
2023-05-10T22:49:15.039Z,9.60
2023-05-10T22:54:18.293Z,9.60
2023-05-10T22:59:24.223Z,9.60
2023-05-10T23:04:30.890Z,9.60
2023-05-10T23:09:35.328Z,9.50
2023-05-10T23:14:37.290Z,9.50
2023-05-10T23:19:40.988Z,9.40
2023-05-10T23:24:47.315Z,9.30
2023-05-10T23:29:52.470Z,9.30
2023-05-10T23:34:54.321Z,9.40
2023-05-10T23:39:59.228Z,9.30
2023-05-10T23:45:01.455Z,9.40
2023-05-10T23:50:08.471Z,9.30
2023-05-10T23:55:12.946Z,9.40
